Terminal Aerodrome Forecast
Issued by NWS New Orleans/Baton Rouge, LA

Home | Current Version | Previous Version | Text Only | Print | Product List | Glossary On
Versions: 1 2 3 4 5 6 7 8 9 10 11 12 13 14 15 16 17 18 19 20 21 22 23 24 25 26 27 28 29 30 31 32
000
FTUS44 KLIX 210540
TAFNEW
TAF
KNEW 210540Z 2106/2206 14008KT 5SM BR OVC022
     FM211000 14009KT 3SM BR BKN008
     FM211500 14010KT 5SM BR OVC035
     FM211600 15011KT P6SM BKN030
     FM211700 15012KT P6SM BKN050
     FM220300 15008KT P6SM BKN010
     FM220500 15008KT 2SM BR BKN008=

USA.gov is the U.S. government's official web portal to all federal, state and local government web resources and services.